x

8447387 - Borden Flats Light At Fall River, Ma (bltm3) Weather Station

5:54 - Fri 23rd Jun 2017 All times are EDT. -4 hours from GMT.

  • Wind
    28mph, 34mph gusts
  • Air Temp 72°f
  • Sea Pressure 1003.7mb
  • 8447387 - Borden Flats Light At Fall River, Ma
  • 8447387 - Borden Flats Light At Fall River, Ma

More Historic Weather Station data

Upgrade to MSW Pro to gain access to the past 30 days of data for over 8000 Wavebouys and Weather Stations around the globe.

Join Pro

Comparision Forecast

View Surf forecast
   
ven. 06/23 5:54 28 34 mph 1003.7mb 72f
5:48 25 31 mph 1003.8mb 72f
5:42 22 30 mph 1003.8mb 73f
5:36 26 33 mph 1003.7mb 73f
5:30 28 34 mph 1003.5mb 73f
5:24 24 31 mph 1003.6mb 74f
5:18 29 34 mph 1003.5mb 74f
5:12 24 34 mph 1003.6mb 75f
5:06 26 31 mph 1003.6mb 76f
5:00 24 33 mph 1003.5mb 76f
4:54 25 32 mph 1003.7mb 76f
4:48 25 33 mph 1003.8mb 76f
4:42 24 30 mph 1003.9mb 76f
4:36 24 30 mph 1004.2mb 76f
4:30 22 28 mph 1004.3mb 76f
4:24 21 28 mph 1004.4mb 76f
4:18 21 28 mph 1004.3mb 75f
4:12 18 24 mph 1004.4mb 75f
4:06 16 23 mph 1004.5mb 75f
4:00 17 23 mph 1004.7mb 75f
3:54 18 22 mph 1004.7mb 75f
3:48 17 21 mph 1004.8mb 75f
3:42 14 22 mph 1004.9mb 75f
3:36 14 17 mph 1005mb 75f
3:30 15 20 mph 1005mb 75f
3:24 17 22 mph 1005.1mb 75f
3:18 17 22 mph 1005.1mb 75f
3:12 18 22 mph 1005.2mb 76f
3:06 16 22 mph 1005.3mb 77f
3:00 21 30 mph 1005.2mb 77f
2:54 17 23 mph 1005.3mb 77f
2:48 17 22 mph 1005.4mb 77f
2:42 20 24 mph 1005.4mb 77f
2:36 21 28 mph 1005.6mb 78f
2:30 20 26 mph 1005.5mb 78f
2:24 17 24 mph 1005.6mb 77f
2:18 21 25 mph 1005.8mb 77f
2:12 16 23 mph 1005.8mb 78f
2:06 18 23 mph 1005.9mb 77f
2:00 20 23 mph 1006.1mb 77f
1:54 22 26 mph 1006mb 78f
1:48 21 29 mph 1005.9mb 79f
1:42 18 24 mph 1006mb 79f
1:36 18 24 mph 1006mb 80f
1:30 20 24 mph 1006.2mb 80f
1:24 17 22 mph 1006.3mb 80f
1:18 18 22 mph 1006.5mb 79f
1:12 22 29 mph 1006.6mb 79f
1:06 23 30 mph 1006.8mb 78f
1:00 20 25 mph 1006.9mb 79f
12:54 20 24 mph 1007mb 79f
12:48 22 28 mph 1007mb 79f
12:42 24 29 mph 1007mb 80f
12:36 22 29 mph 1007mb 80f
12:30 21 25 mph 1007mb 80f
12:24 22 29 mph 1007mb 81f
12:18 18 24 mph 1007.1mb 81f
12:12 18 23 mph 1007.2mb 81f
12:06 18 23 mph 1007.2mb 81f
12:00 16 20 mph 1007.3mb 81f
11:54 14 18 mph 1007.4mb 80f
11:48 17 21 mph 1007.4mb 80f
11:42 17 21 mph 1007.5mb 79f
11:36 11 15 mph 1007.6mb 80f
11:30 15 22 mph 1007.6mb 79f
11:24 16 21 mph 1007.6mb 80f
11:18 15 20 mph 1007.6mb 80f
11:12 16 20 mph 1007.6mb 80f
11:06 16 20 mph 1007.7mb 80f
11:00 13 20 mph 1007.8mb 80f
10:54 13 20 mph 1007.9mb 80f
10:48 13 15 mph 1008.1mb 78f
10:42 13 17 mph 1008.1mb 77f
10:36 10 13 mph 1008.2mb 75f
10:30 10 14 mph 1008.2mb 74f
10:24 9 10 mph 1008.3mb 74f
10:18 10 11 mph 1008.4mb 74f
10:12 10 11 mph 1008.4mb 73f
10:06 9 10 mph 1008.5mb 73f
10:00 9 10 mph 1008.6mb 73f
9:54 9 10 mph 1008.7mb 73f
9:48 10 13 mph 1008.7mb 73f
9:42 8 10 mph 1008.8mb 74f
9:36 9 11 mph 1008.8mb 74f
9:30 8 10 mph 1008.8mb 74f
9:24 7 9 mph 1008.9mb 74f
9:18 9 13 mph 1009mb 73f
9:12 8 11 mph 1009.1mb 72f
9:06 5 6 mph 1009.3mb 72f
9:00 5 7 mph 1009.2mb 71f
8:54 5 6 mph 1009.2mb 71f
8:48 5 7 mph 1009.3mb 71f
8:42 6 8 mph 1009.4mb 71f
8:36 3 5 mph 1009.4mb 71f
8:30 6 8 mph 1009.4mb 71f
8:24 6 8 mph 1009.4mb 71f
8:18 8 10 mph 1009.4mb 71f
8:12 7 8 mph 1009.4mb 71f
8:06 8 9 mph 1009.3mb 71f
8:00 6 9 mph 1009.3mb 71f
7:54 7 9 mph 1009.3mb 71f
7:48 8 10 mph 1009.3mb 71f
7:42 6 9 mph 1009.3mb 71f
7:36 8 10 mph 1009.2mb 71f
7:30 7 8 mph 1009.1mb 71f
7:24 6 7 mph 1009.2mb 70f
7:18 6 7 mph 1009.3mb 70f
7:12 6 7 mph 1009.3mb 70f
7:06 6 7 mph 1009.3mb 70f
7:00 6 7 mph 1009.2mb 70f
6:54 5 6 mph 1009.1mb 69f
6:48 7 10 mph 1009.2mb 69f
6:42 6 8 mph 1009.2mb 69f
6:36 5 7 mph 1009.3mb 69f
6:30 5 6 mph 1009.3mb 69f
6:24 7 9 mph 1009.3mb 69f
6:18 7 8 mph 1009.3mb 68f
6:12 8 10 mph 1009.4mb 68f
6:06 6 8 mph 1009.4mb 68f
6:00 6 8 mph 1009.4mb 68f
5:54 6 7 mph 1009.4mb 68f
5:48 6 8 mph 1009.3mb 68f
5:42 7 9 mph 1009.3mb 68f
5:36 7 10 mph 1009.4mb 68f
5:30 8 10 mph 1009.3mb 68f
5:24 7 9 mph 1009.3mb 68f
5:18 7 10 mph 1009.3mb 69f
5:12 8 10 mph 1009.2mb 69f
5:06 5 7 mph 1009.3mb 69f
5:00 7 8 mph 1009.3mb 69f
4:54 7 9 mph 1009.4mb 69f
4:48 8 10 mph 1009.4mb 69f
4:42 7 9 mph 1009.4mb 69f
4:36 8 9 mph 1009.4mb 69f
4:30 8 10 mph 1009.4mb 69f
4:24 9 11 mph 1009.3mb 69f
4:18 6 8 mph 1009.2mb 69f
4:12 6 7 mph 1009.1mb 69f
4:06 5 6 mph 1009.2mb 69f
4:00 5 7 mph 1009.2mb 69f
3:54 3 6 mph 1009.3mb 69f
3:48 3 7 mph 1009.4mb 69f
3:42 6 8 mph 1009.5mb 69f
3:36 3 5 mph 1009.5mb 69f
3:30 3 6 mph 1009.5mb 69f
3:24 3 6 mph 1009.5mb 69f
3:18 3 6 mph 1009.5mb 69f
3:12 3 6 mph 1009.6mb 69f
3:06 3 6 mph 1009.7mb 70f
3:00 7 10 mph 1009.7mb 70f
2:48 9 10 mph 1009.9mb -
2:42 9 11 mph 1010mb -
2:36 8 10 mph 1010mb -
2:30 8 10 mph 1010.2mb 70f
2:24 7 8 mph 1010.2mb 70f
2:18 8 10 mph 1010.3mb 70f
2:12 9 11 mph 1010.3mb 70f
2:06 10 13 mph 1010.4mb 70f
2:00 11 14 mph 1010.5mb 70f
1:54 10 13 mph 1010.6mb 70f
1:48 9 11 mph 1010.7mb -
1:42 8 9 mph 1010.8mb -
1:36 8 13 mph 1010.8mb -
1:30 9 9 mph 1010.9mb 71f
1:24 9 10 mph 1011mb 71f
1:18 9 10 mph 1011.2mb 71f
1:12 7 9 mph 1011.3mb 71f
1:06 7 9 mph 1011.5mb 71f
1:00 7 9 mph 1011.5mb 71f
12:54 8 9 mph 1011.5mb 71f
12:48 9 10 mph 1011.6mb 71f
12:42 9 11 mph 1011.6mb 71f
12:36 9 11 mph 1011.7mb 71f
12:30 10 11 mph 1011.7mb 71f
12:24 10 11 mph 1011.9mb 71f
12:18 11 14 mph 1012mb 71f
12:12 10 14 mph 1012.1mb 71f
12:06 11 14 mph 1012.2mb 71f
12:00 9 11 mph 1012.4mb 71f
jeu. 06/22 11:54 8 9 mph 1012.4mb 71f
11:48 10 11 mph 1012.3mb 71f
11:42 9 11 mph 1012.4mb 71f
11:36 9 10 mph 1012.4mb 71f
11:30 9 10 mph 1012.3mb 71f
11:24 9 11 mph 1012.3mb 71f
11:18 10 13 mph 1012.2mb 71f
11:12 10 13 mph 1012.2mb 71f
11:06 10 11 mph 1012.2mb 71f
11:00 9 11 mph 1012.3mb 71f
10:54 9 11 mph 1012.4mb 71f
10:48 10 13 mph 1012.4mb 71f
10:42 10 11 mph 1012.4mb 71f
10:36 10 13 mph 1012.5mb 71f
10:30 9 11 mph 1012.4mb 71f
10:24 10 11 mph 1012.3mb 72f
10:18 9 11 mph 1012.3mb 72f
10:12 10 11 mph 1012.3mb 72f
10:06 11 14 mph 1012.3mb 72f
10:00 13 15 mph 1012.3mb 71f
9:54 13 16 mph 1012.5mb 72f
9:48 13 15 mph 1012.4mb 72f
9:42 13 15 mph 1012.3mb 71f
9:36 13 14 mph 1012.3mb 71f
9:30 13 14 mph 1012.4mb 71f
9:24 13 15 mph 1012.4mb 71f
9:18 13 14 mph 1012.4mb 71f
9:12 11 13 mph 1012.4mb 71f
9:06 9 13 mph 1012.3mb 72f
9:00 9 13 mph 1012.3mb 72f
8:48 8 10 mph 1012.3mb 72f
8:42 10 14 mph 1012.2mb 72f
8:36 11 15 mph 1012.2mb 72f
8:30 13 15 mph 1012.2mb 72f
8:24 13 17 mph 1012.1mb 72f
8:18 14 15 mph 1012.2mb 72f
8:12 14 17 mph 1012.1mb 72f
8:06 14 17 mph 1012.2mb 72f
8:00 14 17 mph 1012.2mb 72f
7:48 16 20 mph 1012mb 72f
7:42 16 20 mph 1011.9mb 72f
7:36 15 20 mph 1011.9mb 72f
7:30 15 21 mph 1011.9mb 72f
7:24 15 18 mph 1011.8mb 73f
7:18 15 21 mph 1011.7mb 73f
7:12 16 22 mph 1011.7mb 73f
7:06 17 22 mph 1011.6mb 73f
7:00 18 23 mph 1011.5mb 73f
6:54 16 21 mph 1011.4mb 73f
6:48 16 21 mph 1011.6mb 74f
6:42 21 29 mph 1011.5mb 74f
6:36 16 22 mph 1011.3mb 74f
6:30 17 24 mph 1011.4mb 74f
6:24 17 22 mph 1011.4mb 74f
6:18 22 28 mph 1011.4mb 74f
6:12 22 26 mph 1011.3mb 75f
6:06 21 25 mph 1011.2mb 75f
6:00 21 25 mph 1011.2mb 75f
5:54 21 25 mph 1011.1mb 75f
5:48 20 23 mph 1011.2mb 76f
5:42 20 23 mph 1011.4mb 75f
5:36 21 23 mph 1011.4mb 75f
5:30 20 25 mph 1011.4mb 75f
5:24 21 23 mph 1011.3mb 75f
5:18 21 25 mph 1011.4mb 76f
5:12 21 24 mph 1011.4mb 76f
5:06 22 26 mph 1011.3mb 76f
5:00 23 26 mph 1011.3mb 76f
4:54 21 24 mph 1011.4mb 76f
4:48 23 25 mph 1011.3mb 76f
4:42 24 28 mph 1011.4mb 76f
4:36 24 26 mph 1011.4mb 76f
4:30 23 25 mph 1011.6mb 76f
4:24 22 24 mph 1011.6mb 77f
4:18 20 24 mph 1011.6mb 77f
4:12 21 23 mph 1011.6mb 77f
4:06 15 20 mph 1011.6mb 78f
4:00 16 20 mph 1011.5mb 78f
3:54 16 21 mph 1011.8mb 78f
3:48 17 22 mph 1011.8mb 78f
3:42 16 18 mph 1011.6mb 78f
3:36 15 18 mph 1011.8mb 78f
3:30 16 20 mph 1011.6mb 77f
3:24 17 21 mph 1011.8mb 77f
3:18 11 15 mph 1011.8mb 78f
3:12 11 15 mph 1011.8mb 77f
3:06 15 20 mph 1011.9mb 77f
3:00 11 16 mph 1012mb 77f
2:54 13 16 mph 1012mb 77f
2:48 14 17 mph 1012.1mb 77f
2:42 13 15 mph 1012.1mb 77f
2:36 14 16 mph 1012.2mb 77f
2:30 14 18 mph 1012.3mb 77f
2:24 14 17 mph 1012.4mb 77f
2:18 10 14 mph 1012.4mb 77f
2:12 13 16 mph 1012.4mb 77f
2:06 13 14 mph 1012.6mb 76f
2:00 13 15 mph 1012.7mb 76f
1:54 11 17 mph 1012.9mb 76f
1:48 14 16 mph 1012.7mb 76f
1:42 11 13 mph 1012.7mb 76f
1:36 10 11 mph 1012.8mb 76f
1:30 11 13 mph 1012.9mb 76f
1:24 10 11 mph 1013mb 75f
1:18 10 11 mph 1013.1mb 76f
1:12 10 10 mph 1013mb 76f
1:06 8 9 mph 1013.1mb 76f
1:00 8 8 mph 1013.2mb 76f
12:54 8 9 mph 1013.3mb 75f
12:48 7 8 mph 1013.4mb 75f
12:42 8 8 mph 1013.4mb 75f
12:36 7 7 mph 1013.5mb 75f
12:30 6 6 mph 1013.6mb 74f
12:24 5 6 mph 1013.7mb 74f
12:18 5 5 mph 1013.7mb 74f
12:12 3 5 mph 1013.7mb 74f
12:06 3 3 mph 1013.7mb 74f
12:00 3 3 mph 1013.8mb 74f
11:54 2 3 mph 1013.8mb 74f
11:48 1 2 mph 1013.8mb 74f
11:42 3 5 mph 1013.8mb 73f
11:36 5 6 mph 1013.8mb 73f
11:30 6 6 mph 1013.8mb 73f
11:24 7 7 mph 1013.7mb 72f
11:18 7 8 mph 1013.6mb 72f
11:12 8 8 mph 1013.6mb 72f
11:06 8 9 mph 1013.6mb 72f
11:00 9 10 mph 1013.7mb 72f
10:54 8 9 mph 1013.9mb 71f
10:48 9 9 mph 1013.9mb 71f
10:42 8 9 mph 1013.9mb 71f
10:36 9 10 mph 1014.1mb 71f
10:30 8 9 mph 1014.2mb 71f
10:24 8 8 mph 1014.2mb 71f
10:18 6 6 mph 1014.2mb 71f
10:12 6 6 mph 1014.3mb 71f
10:06 5 6 mph 1014.4mb 71f
10:00 3 5 mph 1014.4mb 71f
9:54 3 5 mph 1014.5mb 71f
9:48 5 5 mph 1014.6mb 70f
9:42 3 5 mph 1014.8mb 70f
9:36 5 6 mph 1014.8mb 70f
9:30 3 5 mph 1014.9mb 70f
9:24 5 6 mph 1015mb 70f
9:18 5 6 mph 1015mb 70f
9:12 5 6 mph 1015.1mb 70f
9:06 3 5 mph 1015.1mb 69f
9:00 2 3 mph 1014.9mb 69f
8:54 5 6 mph 1015mb 69f
8:48 3 6 mph 1015.1mb 69f
8:42 5 6 mph 1015.1mb 69f
8:36 6 6 mph 1015.1mb 69f
8:30 6 7 mph 1015mb 69f
8:24 3 5 mph 1015mb 69f
8:18 5 6 mph 1014.9mb 69f
8:12 6 7 mph 1014.9mb 69f
8:06 7 10 mph 1015mb 69f
8:00 6 7 mph 1014.9mb 68f
7:54 3 6 mph 1014.8mb 67f
7:48 7 9 mph 1014.8mb 67f
7:42 6 9 mph 1014.8mb 67f
7:36 2 3 mph 1014.7mb 67f
7:30 5 6 mph 1014.6mb 67f
7:24 2 5 mph 1014.6mb 67f
7:18 5 6 mph 1014.5mb 67f
7:12 3 6 mph 1014.5mb 67f
7:06 1 3 mph 1014.7mb 66f
7:00 2 6 mph 1014.6mb 66f
6:54  -  2 mph 1014.5mb 65f
6:48 1 3 mph 1014.4mb 66f
6:42  -  2 mph 1014.4mb 66f
6:36  -  2 mph 1014.2mb 66f
6:30 2 3 mph 1014.2mb 66f
6:24 5 7 mph 1014.2mb 66f
6:18 5 6 mph 1014.2mb 65f
6:12 7 8 mph 1014.1mb 65f
6:06 7 9 mph 1014.1mb 65f
6:00 6 8 mph 1014.1mb 65f
5:54 6 8 mph 1013.9mb 65f
5:48 6 8 mph 1013.9mb 65f
5:42 5 6 mph 1013.9mb 65f
5:36 5 6 mph 1013.8mb 65f
5:30 5 6 mph 1013.7mb 65f
5:24 6 9 mph 1013.7mb 66f
5:18 10 11 mph 1013.7mb 66f
5:12 10 13 mph 1013.6mb 66f
5:06 9 13 mph 1013.6mb 66f
5:00 8 9 mph 1013.5mb 66f
4:54 9 11 mph 1013.4mb 66f
4:48 7 9 mph 1013.4mb 66f
4:42 6 7 mph 1013.4mb 66f
4:36 7 9 mph 1013.4mb 67f
4:30 5 7 mph 1013.3mb 67f
4:24 5 7 mph 1013.3mb 67f
4:18 5 6 mph 1013.2mb 67f
4:12 5 6 mph 1013.2mb 67f
4:06 5 6 mph 1013.1mb 67f
4:00 2 3 mph 1013.1mb 67f
3:54 3 6 mph 1013mb 67f
3:48 5 6 mph 1012.9mb 67f
3:42 3 6 mph 1012.9mb 67f
3:36 3 6 mph 1012.9mb 67f
3:30 5 7 mph 1012.8mb 67f
3:24 3 5 mph 1012.8mb 68f
3:18 5 7 mph 1012.8mb 68f
3:12 5 5 mph 1012.8mb 69f
3:06 3 6 mph 1012.7mb 69f
3:00 5 5 mph 1012.6mb 69f
2:54 3 5 mph 1012.6mb 68f
2:48 3 5 mph 1012.6mb -
2:42 2 5 mph 1012.5mb -
2:36 3 5 mph 1012.6mb -
2:30 5 8 mph 1012.6mb 69f
2:24 6 7 mph 1012.6mb 69f
2:18 6 7 mph 1012.6mb 70f
2:12 6 8 mph 1012.6mb 69f
2:06 6 7 mph 1012.6mb 69f
2:00 6 6 mph 1012.6mb 69f
1:54 5 5 mph 1012.6mb 68f
1:48 2 3 mph 1012.6mb -
1:42 1 3 mph 1012.6mb -
1:36  -  2 mph 1012.6mb -
1:30  -  2 mph 1012.6mb 69f
1:24 2 2 mph 1012.6mb 69f
1:18 1 2 mph 1012.6mb 69f
1:12 1 1 mph 1012.5mb 69f
1:06  -  1 mph 1012.5mb 69f
1:00  -  1 mph 1012.5mb 69f
12:54 1 2 mph 1012.6mb 69f
12:48  -  1 mph 1012.6mb 69f
12:42  -  1 mph 1012.6mb 69f
12:36 2 3 mph 1012.6mb 69f
12:30 3 5 mph 1012.4mb 69f
12:24 3 5 mph 1012.4mb 69f
12:18 3 5 mph 1012.4mb 70f
12:12 5 5 mph 1012.4mb 70f
12:06 5 5 mph 1012.3mb 70f
12:00 5 5 mph 1012.3mb 70f
mer. 06/21 11:54 3 5 mph 1012.3mb 70f
11:48 3 3 mph 1012.2mb 70f
11:42 3 3 mph 1012.1mb 71f
11:36 2 3 mph 1012.1mb 71f
11:30 2 3 mph 1012mb 71f
11:24 3 3 mph 1012mb 71f
11:18 3 5 mph 1012mb 71f
11:12 5 6 mph 1011.9mb 71f
11:06 6 7 mph 1011.9mb 72f
11:00 6 8 mph 1011.9mb 72f
10:54 6 7 mph 1011.9mb 71f
10:48 5 6 mph 1011.9mb 71f
10:42 6 6 mph 1011.9mb 71f
10:36 5 6 mph 1011.9mb 71f
10:30 5 6 mph 1011.9mb 71f
10:24 5 6 mph 1011.9mb 71f
10:18 6 7 mph 1011.7mb 71f
10:12 6 7 mph 1011.7mb 71f
10:06 6 7 mph 1011.7mb 70f
10:00 6 7 mph 1011.7mb 71f
9:54 3 6 mph 1011.6mb 71f
9:48 5 6 mph 1011.6mb 71f
9:42 5 7 mph 1011.5mb 71f
9:36 3 5 mph 1011.4mb 71f
9:30 6 7 mph 1011.3mb 71f
9:24 6 7 mph 1011.1mb 71f
9:18 6 7 mph 1011mb 71f
9:12 7 8 mph 1010.9mb 71f
9:06 8 10 mph 1010.8mb 71f
9:00 10 11 mph 1010.7mb 71f
8:54 8 9 mph 1010.7mb 71f
8:48 8 11 mph 1010.6mb 71f
8:42 10 14 mph 1010.5mb 71f
8:36 11 14 mph 1010.4mb 71f
8:30 11 13 mph 1010.4mb 71f
8:24 13 14 mph 1010.3mb 71f
8:18 14 15 mph 1010.3mb 71f
8:12 14 16 mph 1010.3mb 71f
8:06 16 18 mph 1010.3mb 72f
8:00 16 20 mph 1010.3mb 72f
7:54 16 18 mph 1010.3mb 72f
7:48 21 24 mph 1010.2mb 72f
7:42 25 29 mph 1009.9mb 72f
7:36 26 29 mph 1009.8mb 73f
7:30 26 30 mph 1009.9mb 74f
7:24 17 20 mph 1009.7mb 73f
7:18 21 22 mph 1009.5mb 72f
7:12 20 22 mph 1009.5mb 72f
7:06 16 17 mph 1009.3mb 73f
7:00 18 21 mph 1009.3mb 74f
6:54 18 21 mph 1009.2mb 75f
6:48 20 23 mph 1009.1mb 75f
6:42 18 23 mph 1009.1mb 75f
6:36 17 20 mph 1009mb 75f
6:30 17 21 mph 1008.9mb 75f
6:24 18 22 mph 1008.8mb 76f
6:18 20 22 mph 1008.8mb 76f
6:12 21 24 mph 1008.8mb 75f
6:06 21 25 mph 1008.7mb 76f
6:00 20 25 mph 1008.7mb 76f
5:54 16 21 mph 1008.8mb 77f
5:48 17 23 mph 1008.8mb 77f
5:42 18 24 mph 1008.7mb 78f
5:36 20 25 mph 1008.6mb 78f
5:30 18 25 mph 1008.6mb 78f
5:24 18 24 mph 1008.6mb 77f
5:18 21 22 mph 1008.7mb 76f
5:12 23 26 mph 1008.6mb 77f
5:06 23 25 mph 1008.6mb 77f
5:00 24 26 mph 1008.5mb 77f
4:54 22 25 mph 1008.6mb 77f
4:48 23 26 mph 1008.6mb 77f
4:42 23 29 mph 1008.5mb 77f
4:36 23 28 mph 1008.5mb 76f
4:30 23 25 mph 1008.5mb 77f
4:24 24 28 mph 1008.5mb 77f
4:18 25 29 mph 1008.5mb 77f
4:12 25 28 mph 1008.4mb 76f
4:06 25 29 mph 1008.4mb 76f
4:00 25 29 mph 1008.4mb 76f
3:54 23 26 mph 1008.7mb 76f
3:48 23 26 mph 1008.7mb 76f
3:42 21 24 mph 1008.7mb 76f
3:36 22 24 mph 1008.7mb 76f
3:30 24 26 mph 1008.7mb 76f
3:24 23 26 mph 1008.8mb 76f
3:18 21 23 mph 1008.8mb 76f
3:12 20 22 mph 1008.8mb 76f
3:06 20 22 mph 1008.9mb 76f
3:00 18 22 mph 1009mb 75f
2:54 21 23 mph 1008.9mb 77f
2:48 20 23 mph 1009mb 76f
2:42 20 23 mph 1009mb 78f
2:36 17 22 mph 1009.1mb 76f
2:30 20 23 mph 1009.2mb 77f
2:24 22 24 mph 1009.1mb 77f
2:18 21 23 mph 1009.1mb 77f
2:12 22 28 mph 1009mb 78f
2:06 21 25 mph 1009.1mb 78f
2:00 22 23 mph 1009.3mb 77f
1:54 20 24 mph 1009.3mb 78f
1:48 18 21 mph - -
1:42 18 22 mph - -
1:36 18 21 mph - -
1:30 21 25 mph 1009.6mb 77f
1:24 14 17 mph 1009.7mb 77f
1:18 17 21 mph 1009.7mb 77f
1:12 22 25 mph 1009.7mb 79f
1:06 22 26 mph 1009.7mb 79f
1:00 20 23 mph 1009.8mb 79f
12:54 24 30 mph 1009.9mb 79f
12:48 18 21 mph 1009.9mb 77f
12:42 14 18 mph 1010mb 76f
12:36 17 21 mph 1010.1mb 76f
12:30 14 20 mph 1010.1mb 76f
12:24 16 20 mph 1010.1mb 77f
12:18 18 21 mph 1010.2mb 77f
12:12 17 21 mph 1010.3mb 76f
12:06 17 18 mph 1010.4mb 76f
12:00 15 17 mph 1010.3mb 77f
11:54 14 17 mph 1010.4mb 77f
11:48 15 18 mph 1010.5mb 78f
11:42 16 20 mph 1010.5mb 76f
11:36 14 16 mph 1010.6mb 75f
11:30 15 17 mph 1010.7mb 75f
11:24 13 14 mph 1010.7mb 75f
11:18 13 14 mph 1010.8mb 75f
11:12 14 15 mph 1010.8mb 75f
11:06 14 15 mph 1010.8mb 75f
11:00 14 16 mph 1010.8mb 76f
10:54 13 15 mph 1010.9mb 75f
10:48 11 13 mph 1011mb 74f
10:42 13 14 mph 1011mb 75f
10:36 14 14 mph 1011mb 74f
10:30 13 14 mph 1011mb 74f
10:24 14 15 mph 1011mb 74f
10:18 11 13 mph 1011.1mb 74f
10:12 9 11 mph 1011.2mb 73f
10:06 10 11 mph 1011.2mb 73f
10:00 11 13 mph 1011.3mb 73f
9:54 11 13 mph 1011.2mb 73f
9:48 11 13 mph 1011.2mb 72f
9:42 11 13 mph 1011.3mb 72f
9:36 11 13 mph 1011.4mb 72f
9:30 10 11 mph 1011.5mb 72f
9:24 11 14 mph 1011.5mb 72f
9:18 10 13 mph 1011.5mb 71f
9:12 11 13 mph 1011.7mb 71f
9:06 13 14 mph 1011.7mb 70f
9:00 13 14 mph 1011.8mb 70f
8:54 11 13 mph 1011.9mb 70f
8:48 11 13 mph 1011.9mb 70f
8:42 11 13 mph 1011.9mb 70f
8:36 10 13 mph 1011.9mb 70f
8:30 9 11 mph 1011.9mb 70f
8:24 9 11 mph 1011.9mb 69f
8:18 7 9 mph 1011.9mb 69f
8:12 8 10 mph 1011.9mb 69f
8:06 8 9 mph 1011.9mb 69f
8:00 8 10 mph 1012mb 69f
7:54 9 10 mph 1012mb 69f
7:48 10 13 mph 1011.9mb 68f
7:42 10 13 mph 1011.9mb 69f
7:36 10 13 mph 1011.9mb 68f
7:30 9 13 mph 1011.9mb 68f
7:24 9 11 mph 1011.9mb 68f
7:18 8 10 mph 1012mb 68f
7:12 10 11 mph 1012mb 68f
7:06 6 10 mph 1012.1mb 69f
7:00 7 9 mph 1012.1mb 68f
6:54 5 7 mph 1012mb 68f
6:48 6 7 mph 1012mb 68f
6:42 8 10 mph 1012mb 68f
6:36 8 9 mph 1012.2mb 68f
6:30 7 9 mph 1012.1mb 68f
6:24 7 9 mph 1012.1mb 68f
6:18 7 9 mph 1012mb 68f
6:12 6 7 mph 1012.1mb 68f
6:06 7 8 mph 1012mb 68f
6:00 7 9 mph 1012.1mb 68f
5:54 7 9 mph 1012mb 68f
5:48 9 11 mph 1012mb 68f
5:42 8 10 mph 1012.1mb 68f
5:36 9 11 mph 1012.1mb 68f
5:30 8 10 mph 1012mb 68f
5:24 9 11 mph 1012mb 69f
5:18 7 8 mph 1012mb 69f
5:12 7 10 mph 1012mb 69f
5:06 5 7 mph 1012mb 69f
5:00 5 6 mph 1011.9mb 69f
4:54 6 7 mph 1011.9mb 69f
4:48 6 7 mph 1011.9mb 69f
4:42 5 6 mph 1011.9mb 69f
4:36 5 8 mph 1011.8mb 69f
4:30 8 9 mph 1011.7mb 69f
4:24 7 9 mph 1011.7mb 69f
4:18 7 9 mph 1011.7mb 69f
4:12 7 9 mph 1011.7mb 69f
4:06 9 10 mph 1011.7mb 69f
4:00 9 10 mph 1011.7mb 69f
3:54 8 11 mph 1011.8mb 69f
3:48 7 8 mph 1011.9mb 69f
3:42 6 9 mph 1012mb 68f
3:36 5 7 mph 1012mb 69f
3:30 6 8 mph 1012.1mb 69f
3:24 5 6 mph 1012.1mb 69f
3:18 5 8 mph 1012.1mb 69f
3:12 6 9 mph 1012.1mb 69f
3:06 7 9 mph 1012.1mb 69f
3:00 9 13 mph 1012.1mb 69f
2:54 7 10 mph 1012.2mb 69f
2:48 2 7 mph 1012.2mb 69f
2:42 3 7 mph 1012.2mb 69f
2:36 3 6 mph 1012.3mb 69f
2:30 6 8 mph 1012.3mb 69f
2:24 5 7 mph 1012.3mb 69f
2:18 5 8 mph 1012.3mb 69f
2:12 6 9 mph 1012.3mb 69f
2:06 7 9 mph 1012.3mb 69f
2:00 6 8 mph 1012.3mb 69f
1:54 6 7 mph 1012.3mb 69f
1:48 3 6 mph 1012.4mb 69f
1:42 6 8 mph 1012.5mb 69f
1:36 5 7 mph 1012.5mb 69f
1:30 5 6 mph 1012.5mb 69f
1:24 6 8 mph 1012.6mb 69f
1:18 5 6 mph 1012.6mb 69f
1:12 3 7 mph 1012.6mb 69f
1:06 6 8 mph 1012.7mb 69f
1:00 7 11 mph 1012.7mb 69f
12:54 7 9 mph 1012.7mb 69f
12:48 7 10 mph 1012.8mb 69f
12:42 7 10 mph 1012.8mb 69f
12:36 8 10 mph 1012.7mb 69f
12:30 8 10 mph 1012.8mb 69f
12:24 7 10 mph 1012.8mb 69f
12:18 6 8 mph 1012.9mb 69f
12:12 5 6 mph 1012.9mb 69f
12:06 6 8 mph 1012.8mb 70f
12:00 5 7 mph 1012.9mb 70f
mar. 06/20 11:54 5 6 mph 1013mb 70f
11:48 5 6 mph 1013mb 70f
11:42 5 7 mph 1012.9mb 70f
11:36 5 7 mph 1012.9mb 70f
11:30 5 7 mph 1013mb 70f
11:24 8 11 mph 1012.9mb 70f
11:18 8 10 mph 1012.9mb 70f
11:12 11 14 mph 1012.8mb 71f
11:06 13 15 mph 1012.7mb 71f
11:00 9 14 mph 1012.8mb 71f
10:54 8 10 mph 1012.7mb 71f
10:48 8 9 mph 1012.7mb 71f
10:42 8 9 mph 1012.7mb 71f
10:36 10 13 mph 1012.6mb 71f
10:30 13 15 mph 1012.6mb 71f
10:24 13 15 mph 1012.6mb 71f
10:18 11 13 mph 1012.7mb 71f
10:12 11 13 mph 1012.7mb 71f
10:06 11 13 mph 1012.6mb 71f
10:00 10 13 mph 1012.6mb 71f
9:54 10 13 mph 1012.6mb 72f
9:48 11 14 mph 1012.6mb 72f
9:42 10 13 mph 1012.6mb 72f
9:36 11 14 mph 1012.5mb 72f
9:30 13 15 mph 1012.4mb 72f
9:24 13 15 mph 1012.3mb 72f
9:18 14 16 mph 1012.3mb 72f
9:12 14 16 mph 1012.2mb 72f
9:06 14 15 mph 1012.1mb 72f
9:00 14 16 mph 1012mb 72f
8:54 14 15 mph 1011.9mb 73f
8:48 11 14 mph 1011.9mb 73f
8:42 11 15 mph 1011.8mb 73f
8:36 13 16 mph 1011.8mb 73f
8:30 15 17 mph 1011.6mb 73f
8:24 16 18 mph 1011.6mb 73f
8:18 16 20 mph 1011.6mb 73f
8:12 15 18 mph 1011.6mb 73f
8:06 16 21 mph 1011.5mb 74f
8:00 16 20 mph 1011.5mb 74f
7:54 17 21 mph 1011.4mb 74f
7:48 20 22 mph 1011.3mb 74f
7:42 18 22 mph 1011.2mb 75f
7:36 18 21 mph 1011.1mb 75f
7:30 17 22 mph 1011.1mb 75f
7:24 20 22 mph 1011.1mb 75f
7:00 21 24 mph 1010.9mb 75f
6:54 21 24 mph 1010.8mb 76f
6:48 21 25 mph 1010.7mb 76f
6:42 24 26 mph 1010.6mb 76f
6:36 23 26 mph 1010.5mb 75f
6:30 24 29 mph 1010.4mb 76f
6:24 25 29 mph 1010.3mb 76f
6:18 23 28 mph 1010.3mb 75f
6:12 24 28 mph 1010.2mb 76f
6:06 23 26 mph 1010.3mb 76f
6:00 22 25 mph 1010.3mb 76f
5:54 24 28 mph 1010.1mb 76f
5:48 24 28 mph 1010.2mb 75f
5:42 23 28 mph 1010.2mb 76f
5:36 23 26 mph 1010.2mb 76f
5:30 23 29 mph 1010.1mb 76f
5:24 24 29 mph 1010.1mb 76f
5:18 25 29 mph 1010.1mb 76f
5:12 24 29 mph 1010.2mb 76f
5:06 25 29 mph 1010.1mb 76f
5:00 23 26 mph 1010.1mb 76f
4:54 22 26 mph 1010mb 75f
4:48 24 26 mph 1009.9mb 75f
4:42 24 29 mph 1010mb 75f
4:36 25 29 mph 1009.9mb 75f
4:30 24 28 mph 1010.1mb 75f
4:24 26 30 mph 1009.9mb 75f
4:18 24 29 mph 1009.9mb 75f
4:12 24 28 mph 1009.8mb 76f
4:06 23 28 mph 1009.8mb 76f
4:00 23 26 mph 1009.8mb 75f
3:54 22 25 mph 1009.7mb 76f
3:48 23 28 mph 1009.7mb 76f
3:42 24 28 mph 1009.6mb 76f
3:36 24 29 mph 1009.7mb 76f
3:30 25 29 mph 1009.6mb 75f
3:24 24 28 mph 1009.7mb 75f
3:18 25 30 mph 1009.6mb 75f
3:12 25 28 mph 1009.7mb 75f
3:06 24 30 mph 1009.7mb 76f
3:00 25 31 mph 1009.6mb 76f
2:54 23 31 mph 1009.6mb 76f
2:48 24 31 mph 1009.5mb 76f
2:42 25 30 mph 1009.5mb 76f
2:36 24 36 mph 1009.6mb 76f
2:30 24 29 mph 1009.7mb 76f
2:24 24 31 mph 1009.8mb 76f
2:18 25 30 mph 1009.9mb 76f
2:12 22 28 mph 1009.9mb 76f
2:06 23 28 mph 1009.9mb 76f
2:00 23 30 mph 1009.8mb 76f
1:54 23 28 mph 1009.9mb 76f
1:48 23 28 mph 1010mb 75f
1:42 22 28 mph 1010mb 76f
1:36 23 28 mph 1010mb 75f
1:30 22 29 mph 1010.1mb 75f
1:24 23 28 mph 1010.1mb 75f
1:18 23 28 mph 1010.1mb 75f
1:12 21 26 mph 1010.2mb 75f
1:06 20 28 mph 1010.2mb 75f
1:00 15 20 mph 1010.3mb 74f
12:54 15 20 mph 1010.4mb 73f
12:48 17 22 mph 1010.4mb 73f
12:42 15 21 mph 1010.6mb 73f
12:36 16 23 mph 1010.7mb 73f
12:30 17 22 mph 1010.7mb 73f
12:24 20 23 mph 1010.6mb 73f
12:18 17 21 mph 1010.6mb 73f
12:12 16 20 mph 1010.6mb 73f
12:06 16 20 mph 1010.5mb 72f
12:00 15 22 mph 1010.6mb 72f
11:54 15 20 mph 1010.6mb 72f
11:48 14 17 mph 1010.7mb 72f
11:42 14 17 mph 1010.7mb 72f
11:36 14 18 mph 1010.6mb 71f
11:30 13 16 mph 1010.6mb 71f
11:24 14 17 mph 1010.6mb 71f
11:18 11 15 mph 1010.7mb 72f
11:12 14 17 mph 1010.8mb 71f
11:06 14 18 mph 1010.8mb 71f
11:00 16 18 mph 1010.8mb 71f
10:54 15 18 mph 1010.7mb 71f
10:48 16 20 mph 1010.7mb 71f
10:42 11 14 mph 1010.7mb 71f
10:36 13 15 mph 1010.5mb 71f
10:30 11 15 mph 1010.5mb 71f
10:24 13 16 mph 1010.5mb 70f
10:18 14 17 mph 1010.5mb 70f
10:12 13 16 mph 1010.7mb 70f
10:06 16 20 mph 1010.7mb 69f
10:00 16 20 mph 1010.7mb 69f
9:54 15 17 mph 1010.7mb 70f
9:48 14 17 mph 1010.6mb 70f
9:42 14 17 mph 1010.6mb 69f
9:36 14 16 mph 1010.6mb 69f
9:30 13 17 mph 1010.5mb 69f
9:24 11 14 mph 1010.5mb 69f
9:18 11 14 mph 1010.5mb 68f
9:12 11 14 mph 1010.7mb 68f
9:06 11 15 mph 1010.7mb 68f
9:00 14 16 mph 1010.8mb 68f
8:54 13 15 mph 1010.8mb 68f
8:48 14 18 mph 1010.7mb 68f
8:42 13 15 mph 1010.7mb 68f
8:36 14 16 mph 1010.8mb 67f
8:30 14 16 mph 1010.8mb 68f
8:24 15 18 mph 1010.6mb 67f
8:18 15 17 mph 1010.5mb 67f
8:12 15 18 mph 1010.4mb 67f
8:06 14 17 mph 1010.4mb 67f
8:00 15 17 mph 1010.5mb 67f
7:54 13 15 mph 1010.3mb 67f
7:48 13 17 mph 1010.4mb 67f
7:42 14 18 mph 1010.5mb 67f
7:36 17 22 mph 1010.3mb 67f
7:30 17 22 mph 1010.3mb 67f
7:24 14 21 mph 1010.1mb 67f
7:18 13 17 mph 1010.1mb 67f
7:12 13 18 mph 1010.1mb 67f
7:06 11 15 mph 1010.1mb 67f
7:00 14 17 mph 1010.1mb 67f
6:54 15 18 mph 1010.2mb 67f
6:48 14 20 mph 1010.2mb 67f
6:42 16 20 mph 1010.2mb 67f
6:36 17 21 mph 1010.3mb 67f
6:30 16 22 mph 1010.2mb 67f
6:24 14 18 mph 1010.1mb 68f
6:18 20 22 mph 1010mb 67f
6:12 16 22 mph 1010.1mb 68f
6:06 16 20 mph 1010.1mb 68f
6:00 15 18 mph 1010mb 68f
5:54 15 18 mph 1010mb 68f
5:48 10 15 mph 1009.9mb 68f
5:42 15 17 mph 1009.7mb 68f
5:36 16 22 mph 1009.6mb 69f
5:30 16 21 mph 1009.6mb 69f
5:24 14 18 mph 1009.6mb 69f
5:18 15 20 mph 1009.7mb 69f
5:12 14 17 mph 1009.7mb 69f
5:06 17 22 mph 1009.7mb 69f
5:00 17 21 mph 1009.7mb 69f
4:54 15 21 mph 1009.7mb 69f
4:48 15 18 mph 1009.7mb 69f
4:42 16 21 mph 1009.6mb 69f
4:36 16 20 mph 1009.7mb 69f
4:30 15 20 mph 1009.7mb 69f
4:24 15 21 mph 1009.6mb 69f
4:18 17 22 mph 1009.5mb 69f
4:12 17 23 mph 1009.6mb 69f
4:06 16 20 mph 1009.8mb 69f
4:00 16 21 mph 1009.8mb 69f
3:54 15 21 mph 1009.9mb 69f
3:48 15 20 mph 1009.9mb 69f
3:42 21 26 mph 1009.9mb 69f
3:36 18 24 mph 1010mb 69f
3:30 18 24 mph 1010.1mb 69f
3:24 17 22 mph 1010.1mb 69f
3:18 18 25 mph 1010.1mb 69f
3:12 21 25 mph 1010mb 69f
3:06 16 23 mph 1010.2mb 69f
3:00 20 25 mph 1010.2mb 69f
2:54 20 24 mph 1010.4mb 69f
2:48 17 22 mph 1010.4mb -
2:42 18 24 mph 1010.2mb -
2:36 17 23 mph 1010.3mb -
2:30 16 20 mph 1010.4mb 68f
2:24 17 24 mph 1010.3mb 68f
2:18 20 23 mph 1010.2mb 68f
2:12 20 26 mph 1010.4mb 69f
2:06 18 24 mph 1010.3mb 69f
2:00 15 18 mph 1010.6mb 69f
1:54 16 21 mph 1010.8mb 69f
1:48 16 21 mph 1010.7mb 69f
1:42 17 22 mph 1010.7mb 69f
1:36 15 20 mph 1010.7mb 69f
1:30 15 18 mph 1010.6mb 69f
1:24 16 20 mph 1010.5mb 69f
1:18 16 20 mph 1010.4mb 69f
1:12 15 18 mph 1010.5mb 69f
1:06 15 20 mph 1010.4mb 69f
1:00 16 21 mph 1010.5mb 69f
12:54 16 20 mph 1010.7mb 69f
12:48 14 20 mph 1010.6mb 69f
12:42 13 17 mph 1010.5mb 69f
12:36 10 11 mph 1010.4mb 68f
12:30 10 13 mph 1010.5mb 68f
12:24 14 15 mph 1010.9mb 68f
12:18 14 17 mph 1011mb 68f
12:12 14 17 mph 1010.9mb 68f
12:06 15 17 mph 1010.9mb 68f
12:00 14 17 mph 1011.1mb 68f
lun. 06/19 11:54 17 22 mph 1011.3mb 68f
11:48 17 23 mph 1011.2mb 68f
11:42 18 22 mph 1011.3mb 68f
11:36 22 29 mph 1011.3mb 68f
11:30 18 25 mph 1011.2mb 68f
11:24 22 28 mph 1011.3mb 68f
11:18 21 30 mph 1011.6mb 68f
11:12 21 26 mph 1011.2mb 68f
11:06 18 22 mph 1011.5mb 69f
11:00 22 29 mph 1011.5mb 69f
10:54 22 29 mph 1011.3mb 69f
10:48 24 30 mph 1011mb 69f